Time;durP1;ratioP1;P1;durP2;ratioP2;P2;SDS_P1;SDS_P2;PMS_P1;PMS_P2;Temp;Humidity;BMP_temperature;BMP_pressure;BME280_temperature;BME280_humidity;BME280_pressure;Samples;Min_cycle;Max_cycle;Signal;HPM_P1;HPM_P2
2022/10/20 00:00:42;;;;;;;7.38;2.88;;;;;;;9.58;83.57;101097.88;4976063;28;20050;-74
2022/10/20 00:03:47;;;;;;;13.77;3.53;;;;;;;9.57;83.78;101098.78;4975951;28;20045;-74
2022/10/20 00:06:51;;;;;;;9.27;4.43;;;;;;;9.68;83.54;101099.22;4956560;29;20145;-74
2022/10/20 00:09:55;;;;;;;13.13;4.00;;;;;;;9.66;82.98;101101.03;4956420;29;20093;-74
2022/10/20 00:12:58;;;;;;;;;;;;;;;9.67;83.30;101097.53;4956998;29;20069;-74
2022/10/20 00:16:03;;;;;;;9.20;3.00;;;;;;;9.60;83.53;101085.59;4956326;29;20289;-74
2022/10/20 00:19:06;;;;;;;14.20;3.80;;;;;;;9.51;83.60;101090.28;4944811;29;20274;-74
2022/10/20 00:22:10;;;;;;;11.55;2.58;;;;;;;9.50;83.30;101085.97;4956384;29;20054;-74
2022/10/20 00:25:13;;;;;;;6.68;3.03;;;;;;;9.69;82.49;101080.03;4956316;29;20117;-74
2022/10/20 00:28:16;;;;;;;7.35;3.10;;;;;;;9.45;83.43;101082.69;4956483;29;20045;-74
2022/10/20 00:31:22;;;;;;;12.23;2.88;;;;;;;9.60;83.20;101080.38;4956135;29;20146;-74
2022/10/20 00:34:25;;;;;;;8.45;3.35;;;;;;;9.40;83.40;101068.97;4956237;29;20053;-74
2022/10/20 00:37:29;;;;;;;10.73;3.70;;;;;;;9.45;83.47;101061.81;4955992;29;20046;-74
2022/10/20 00:40:32;;;;;;;;;;;;;;;9.64;83.00;101055.88;4956226;29;20042;-74
2022/10/20 00:43:40;;;;;;;12.02;2.90;;;;;;;9.55;82.59;101057.91;4956193;29;19921;-74
2022/10/20 00:46:43;;;;;;;15.13;3.50;;;;;;;9.66;82.12;101049.66;4955954;29;20111;-74
2022/10/20 00:49:48;;;;;;;19.85;3.65;;;;;;;9.58;82.18;101050.88;4955898;29;20514;-74
2022/10/20 00:52:53;;;;;;;12.68;3.25;;;;;;;9.32;82.92;101044.94;4955718;29;20058;-74
2022/10/20 00:55:58;;;;;;;12.18;3.13;;;;;;;9.37;83.39;101042.13;4955699;29;20098;-74
2022/10/20 00:59:03;;;;;;;13.38;2.83;;;;;;;9.45;82.91;101030.50;4955952;29;20105;-74
2022/10/20 01:02:09;;;;;;;14.73;3.38;;;;;;;9.36;83.23;101032.63;4954736;28;20054;-74
2022/10/20 01:05:13;;;;;;;15.77;3.53;;;;;;;9.43;82.75;101021.00;4962775;28;20078;-74
2022/10/20 01:08:16;;;;;;;11.15;4.95;;;;;;;9.39;82.94;101027.28;4974714;28;20042;-74
2022/10/20 01:11:44;;;;;;;;;;;;;;;9.46;82.56;101026.97;4975110;28;20081;-74
2022/10/20 01:14:54;;;;;;;15.00;4.35;;;;;;;9.32;82.98;101030.13;4974871;28;19921;-74
2022/10/20 01:18:08;;;;;;;12.70;3.63;;;;;;;9.46;82.75;101039.16;4974521;28;20046;-74
2022/10/20 01:21:27;;;;;;;10.75;3.92;;;;;;;9.33;83.62;101046.63;4974465;28;20426;-74
2022/10/20 01:24:52;;;;;;;9.60;3.70;;;;;;;9.49;83.79;101026.84;4974672;28;20089;-74
2022/10/20 01:28:08;;;;;;;14.45;3.85;;;;;;;9.41;82.99;101025.44;4974763;28;20182;-74
2022/10/20 01:31:21;;;;;;;12.38;3.63;;;;;;;9.41;83.39;101022.81;4974356;28;20511;-74
2022/10/20 01:34:25;;;;;;;9.38;3.58;;;;;;;9.48;83.42;101019.09;4974061;28;20049;-74
2022/10/20 01:38:02;;;;;;;9.38;4.07;;;;;;;9.39;83.28;101019.44;4974025;28;20054;-74
2022/10/20 01:41:16;;;;;;;12.90;3.47;;;;;;;9.25;84.50;101013.00;4974312;28;20569;-74
2022/10/20 01:44:21;;;;;;;;;;;;;;;9.42;83.57;101003.66;4974896;28;20065;-74
2022/10/20 01:47:27;;;;;;;10.50;3.47;;;;;;;9.22;83.74;101007.91;4974089;28;19920;-74
2022/10/20 01:50:33;;;;;;;14.30;4.00;;;;;;;9.43;83.42;100990.53;4974076;28;20053;-74
2022/10/20 01:53:37;;;;;;;7.25;3.10;;;;;;;9.35;83.50;100989.13;4973789;28;20098;-74
2022/10/20 01:56:59;;;;;;;12.07;3.13;;;;;;;9.44;83.24;100991.38;4973664;28;20098;-74
2022/10/20 02:00:10;;;;;;;8.50;3.63;;;;;;;9.44;82.97;100984.38;4974059;28;20058;-74
2022/10/20 02:03:20;;;;;;;9.68;3.65;;;;;;;9.43;83.06;100990.53;4973919;28;20822;-74
2022/10/20 02:07:04;;;;;;;8.65;3.63;;;;;;;9.48;83.06;100979.94;4972992;28;20410;-74
2022/10/20 02:10:27;;;;;;;7.72;3.80;;;;;;;9.32;83.52;100966.63;4974039;28;20061;-74
2022/10/20 02:13:34;;;;;;;11.18;3.65;;;;;;;9.46;83.34;100969.53;4973554;28;20046;-74
2022/10/20 02:16:44;;;;;;;8.48;3.72;;;;;;;9.44;83.50;100963.50;4971713;28;20394;-74
2022/10/20 02:19:52;;;;;;;12.18;3.28;;;;;;;9.25;84.02;100952.13;4973218;28;20050;-74
2022/10/20 02:22:57;;;;;;;14.18;4.13;;;;;;;9.07;84.59;100959.78;4973747;28;20105;-74
2022/10/20 02:26:05;;;;;;;8.40;3.85;;;;;;;9.20;84.29;100941.03;4973554;28;20102;-74
2022/10/20 02:29:16;;;;;;;8.55;3.42;;;;;;;9.13;84.03;100934.38;4973709;28;20138;-74
2022/10/20 02:32:21;;;;;;;13.32;3.97;;;;;;;9.16;84.55;100929.88;4973397;28;20133;-74
2022/10/20 02:35:31;;;;;;;13.48;3.85;;;;;;;9.10;84.99;100926.66;4972927;28;20045;-74
2022/10/20 02:38:34;;;;;;;12.63;3.83;;;;;;;9.21;84.77;100920.09;4973516;28;20042;-74
2022/10/20 02:41:37;;;;;;;12.95;3.40;;;;;;;9.16;84.77;100913.38;4973358;28;20143;-74
2022/10/20 02:44:41;;;;;;;9.73;3.88;;;;;;;9.21;84.46;100924.47;4973277;28;20081;-74
2022/10/20 02:47:44;;;;;;;;;;;;;;;9.26;84.34;100919.91;4973476;28;20073;-74
2022/10/20 02:50:47;;;;;;;17.35;3.75;;;;;;;9.20;84.81;100923.63;4971694;28;19976;-74
2022/10/20 02:53:53;;;;;;;9.40;3.60;;;;;;;9.21;84.28;100922.69;4972660;28;20134;-74
2022/10/20 02:56:56;;;;;;;12.18;3.10;;;;;;;9.25;84.02;100939.06;4973124;28;20406;-74
2022/10/20 03:00:00;;;;;;;11.52;3.97;;;;;;;9.30;83.91;100934.53;4972843;28;20101;-74
2022/10/20 03:03:03;;;;;;;;;;;;;;;9.28;84.11;100936.34;4973362;28;20094;-74
2022/10/20 03:06:14;;;;;;;9.57;3.38;;;;;;;9.15;83.79;100932.53;4973012;28;19925;-74
2022/10/20 03:09:17;;;;;;;10.82;3.80;;;;;;;9.23;84.14;100922.66;4972810;28;20052;-74
2022/10/20 03:12:20;;;;;;;;;;;;;;;9.12;84.28;100922.22;4973729;28;20140;-74
2022/10/20 03:15:24;;;;;;;18.75;3.67;;;;;;;9.29;84.14;100915.41;4972665;28;19920;-74
2022/10/20 03:18:27;;;;;;;11.30;3.20;;;;;;;9.21;84.08;100900.97;4972934;28;20133;-74
2022/10/20 03:21:31;;;;;;;;;;;;;;;9.18;84.24;100921.97;4968654;28;20042;-74
2022/10/20 03:24:34;;;;;;;8.75;3.20;;;;;;;9.32;83.53;100910.06;4972851;28;19964;-74
2022/10/20 03:27:38;;;;;;;7.03;3.22;;;;;;;9.16;84.25;100913.38;4976644;28;20508;-74
2022/10/20 03:30:41;;;;;;;5.72;3.10;;;;;;;9.37;83.89;100907.25;4976267;28;20106;-74
2022/10/20 03:33:45;;;;;;;4.97;2.97;;;;;;;9.29;83.97;100893.69;4976417;28;20093;-74
2022/10/20 03:36:48;;;;;;;;;;;;;;;9.10;84.47;100896.19;4977025;28;20050;-74
2022/10/20 03:39:52;;;;;;;6.20;3.20;;;;;;;9.28;84.27;100897.19;4976534;28;19968;-74
2022/10/20 03:42:55;;;;;;;13.23;3.85;;;;;;;9.20;84.73;100899.28;4975363;28;20090;-74
2022/10/20 03:46:05;;;;;;;6.18;3.00;;;;;;;9.27;84.94;100890.28;4976544;28;20069;-74
2022/10/20 03:49:09;;;;;;;4.90;2.85;;;;;;;9.15;84.71;100886.41;4976610;28;20138;-74
2022/10/20 03:52:12;;;;;;;;;;;;;;;9.20;84.63;100888.84;4977081;28;20057;-74
2022/10/20 03:55:17;;;;;;;12.73;3.80;;;;;;;9.38;84.22;100893.31;4976452;28;19968;-74
2022/10/20 03:58:20;;;;;;;12.02;3.85;;;;;;;9.41;84.04;100885.38;4976293;28;20098;-74
2022/10/20 04:01:29;;;;;;;9.93;3.30;;;;;;;9.23;84.63;100880.91;4976108;28;20153;-74
2022/10/20 04:04:32;;;;;;;9.45;2.95;;;;;;;9.11;85.40;100889.22;4975852;28;20053;-74
2022/10/20 04:07:35;;;;;;;;;;;;;;;9.36;84.29;100879.47;4977160;28;20045;-74
2022/10/20 04:10:39;;;;;;;11.98;3.33;;;;;;;9.29;84.43;100880.66;4976326;28;20316;-74
2022/10/20 04:13:43;;;;;;;8.07;3.20;;;;;;;9.29;84.42;100873.66;4976026;28;20058;-74
2022/10/20 04:16:46;;;;;;;;;;;;;;;9.22;84.54;100877.44;4976260;28;20069;-74
2022/10/20 04:19:50;;;;;;;10.82;3.60;;;;;;;9.30;84.86;100879.72;4976391;28;19924;-74
2022/10/20 04:22:55;;;;;;;10.15;3.42;;;;;;;9.21;85.66;100875.72;4976115;28;20053;-74
2022/10/20 04:25:59;;;;;;;5.32;3.10;;;;;;;9.04;85.88;100871.19;4975792;28;20037;-74
2022/10/20 04:29:02;;;;;;;10.40;3.67;;;;;;;9.22;85.09;100866.13;4975694;28;20073;-74
2022/10/20 04:32:05;;;;;;;;;;;;;;;9.26;85.16;100855.53;4976148;28;20045;-74
2022/10/20 04:35:09;;;;;;;8.77;3.25;;;;;;;9.19;85.25;100850.59;4975878;28;19921;-74
2022/10/20 04:38:13;;;;;;;10.27;2.90;;;;;;;9.15;85.62;100842.06;4973919;28;20069;-74
2022/10/20 04:41:16;;;;;;;10.95;3.08;;;;;;;9.28;85.57;100831.97;4975698;28;20128;-74
2022/10/20 04:44:20;;;;;;;;;;;;;;;9.22;85.67;100824.38;4975893;28;20065;-74
2022/10/20 04:47:24;;;;;;;6.50;3.08;;;;;;;9.22;85.64;100820.03;4975136;28;20428;-74
2022/10/20 04:50:30;;;;;;;11.57;3.47;;;;;;;9.13;85.72;100810.00;4975621;28;20053;-74
2022/10/20 04:53:45;;;;;;;6.38;2.85;;;;;;;9.07;86.54;100811.09;4961418;28;20050;-74
2022/10/20 04:56:52;;;;;;;14.45;3.75;;;;;;;8.98;86.73;100813.22;4962837;28;20125;-74
2022/10/20 05:00:04;;;;;;;7.68;2.90;;;;;;;9.16;85.90;100803.81;4975049;28;20050;-74
2022/10/20 05:03:36;;;;;;;9.60;3.05;;;;;;;9.14;85.97;100800.41;4975288;28;20046;-74
2022/10/20 05:06:42;;;;;;;11.68;3.10;;;;;;;9.32;85.47;100800.47;4962763;28;20132;-74
2022/10/20 05:09:50;;;;;;;8.48;3.78;;;;;;;9.31;85.55;100797.91;4974963;28;20093;-74
2022/10/20 05:12:58;;;;;;;11.93;3.20;;;;;;;9.21;86.03;100783.56;4974950;28;20187;-74
2022/10/20 05:16:04;;;;;;;7.95;3.45;;;;;;;9.25;86.01;100788.59;4974594;28;20410;-74
2022/10/20 05:19:13;;;;;;;9.02;3.20;;;;;;;9.20;86.69;100780.13;4975103;28;20057;-74
2022/10/20 05:22:18;;;;;;;8.52;3.38;;;;;;;9.23;86.31;100771.31;4974891;28;20131;-74
2022/10/20 05:25:22;;;;;;;8.70;2.92;;;;;;;9.23;86.67;100768.72;4974982;28;20126;-74
2022/10/20 05:28:27;;;;;;;13.77;3.40;;;;;;;9.28;86.15;100765.00;4974069;28;20065;-74
2022/10/20 05:31:39;;;;;;;8.55;3.10;;;;;;;9.36;85.76;100763.81;4974567;28;20109;-74
2022/10/20 05:34:45;;;;;;;12.63;4.03;;;;;;;9.31;85.93;100762.22;4974787;28;20487;-73
2022/10/20 05:37:52;;;;;;;11.18;3.85;;;;;;;9.08;87.06;100778.84;4974746;28;20042;-74
2022/10/20 05:41:09;;;;;;;16.45;4.78;;;;;;;9.19;86.45;100777.56;4974241;28;20053;-74
2022/10/20 05:44:16;;;;;;;13.02;4.10;;;;;;;9.07;87.06;100774.56;4974611;28;20100;-74
2022/10/20 05:47:27;;;;;;;13.20;4.05;;;;;;;9.18;86.92;100768.03;4974802;28;20046;-73
2022/10/20 05:50:35;;;;;;;13.50;3.15;;;;;;;9.11;87.24;100761.41;4972784;28;20070;-74
2022/10/20 05:53:43;;;;;;;13.77;3.92;;;;;;;9.28;86.71;100759.78;4972706;28;20506;-74
2022/10/20 05:56:47;;;;;;;12.25;3.88;;;;;;;9.18;86.88;100771.50;4972679;28;20089;-74
2022/10/20 05:59:52;;;;;;;12.07;3.72;;;;;;;9.30;86.11;100770.13;4973555;28;20067;-74
2022/10/20 06:02:56;;;;;;;10.65;3.40;;;;;;;9.29;85.90;100773.66;4961866;28;20052;-74
2022/10/20 06:06:04;;;;;;;8.25;3.25;;;;;;;9.26;85.76;100779.00;4973941;28;20054;-74
2022/10/20 06:13:26;;;;;;;14.20;4.22;;;;;;;9.06;87.19;100772.00;4973769;28;20581;-73
2022/10/20 06:16:31;;;;;;;12.90;3.28;;;;;;;9.11;86.90;100770.06;4973789;28;20066;-74
2022/10/20 06:19:43;;;;;;;11.35;3.10;;;;;;;8.95;87.08;100769.84;4973924;28;20098;-74
2022/10/20 06:22:46;;;;;;;8.93;3.05;;;;;;;9.07;87.88;100774.56;4961700;28;20041;-74
2022/10/20 06:25:50;;;;;;;6.22;3.03;;;;;;;9.05;86.65;100785.97;4973357;28;20122;-74
2022/10/20 06:28:56;;;;;;;7.45;3.65;;;;;;;8.97;87.35;100809.78;4973474;28;20041;-73
2022/10/20 06:32:02;;;;;;;9.02;3.45;;;;;;;9.18;86.38;100801.97;4973647;28;20415;-74
2022/10/20 06:35:06;;;;;;;8.25;3.17;;;;;;;9.08;86.68;100823.22;4973331;28;20505;-74
2022/10/20 06:38:10;;;;;;;5.40;3.20;;;;;;;9.25;86.16;100811.22;4973496;28;20401;-74
2022/10/20 06:41:16;;;;;;;16.17;5.63;;;;;;;9.13;86.36;100833.47;4973559;28;20105;-74
2022/10/20 06:44:22;;;;;;;9.55;3.42;;;;;;;9.25;86.04;100824.25;4961337;28;20106;-74
2022/10/20 06:47:29;;;;;;;12.57;4.03;;;;;;;9.45;84.82;100806.00;4973487;28;20189;-74
2022/10/20 06:50:34;;;;;;;8.93;3.63;;;;;;;9.39;85.44;100805.44;4973186;28;20093;-74
2022/10/20 06:53:38;;;;;;;7.95;4.22;;;;;;;9.42;85.21;100806.16;4973196;28;20134;-74
2022/10/20 06:56:41;;;;;;;5.97;3.33;;;;;;;9.47;84.90;100792.88;4972891;28;20046;-74
2022/10/20 06:59:46;;;;;;;8.48;3.10;;;;;;;9.44;85.32;100813.91;4972490;28;20447;-74
2022/10/20 07:02:50;;;;;;;6.00;3.10;;;;;;;9.35;85.82;100820.38;4973313;28;20513;-74
2022/10/20 07:05:56;;;;;;;10.35;3.95;;;;;;;9.49;85.93;100833.66;4972765;28;20085;-74
2022/10/20 07:09:02;;;;;;;9.02;3.60;;;;;;;9.48;86.34;100831.13;4972880;28;20115;-74
2022/10/20 07:12:07;;;;;;;13.25;3.40;;;;;;;9.49;86.60;100838.88;4973035;28;20069;-74
2022/10/20 07:15:11;;;;;;;8.27;3.40;;;;;;;9.53;86.42;100832.63;4973134;28;20102;-74
2022/10/20 07:18:15;;;;;;;8.98;3.60;;;;;;;9.83;85.13;100816.53;4973503;28;20141;-74
2022/10/20 07:21:25;;;;;;;7.85;3.70;;;;;;;9.80;85.88;100806.22;4972982;28;20069;-74
2022/10/20 07:24:29;;;;;;;6.15;3.05;;;;;;;9.81;86.23;100813.16;4972780;28;20413;-74
2022/10/20 07:27:33;;;;;;;13.43;3.70;;;;;;;9.90;86.02;100823.19;4957202;28;20175;-74
2022/10/20 07:30:41;;;;;;;12.90;4.82;;;;;;;9.80;85.05;100806.22;4972744;28;20050;-74
2022/10/20 07:33:45;;;;;;;6.95;4.05;;;;;;;9.90;84.14;100804.91;4960760;28;20054;-73
2022/10/20 07:36:49;;;;;;;8.00;3.47;;;;;;;9.92;85.42;100795.25;4972683;28;20046;-73
2022/10/20 07:39:53;;;;;;;6.43;4.03;;;;;;;10.17;84.93;100796.72;4972663;28;20065;-74
2022/10/20 07:42:56;;;;;;;;;;;;;;;10.28;84.29;100794.50;4973310;28;20517;-74
2022/10/20 07:45:59;;;;;;;6.70;4.25;;;;;;;10.27;84.16;100798.00;4972979;28;19921;-74
2022/10/20 07:49:03;;;;;;;11.52;5.45;;;;;;;10.28;83.76;100786.66;4972801;28;20098;-74
2022/10/20 07:52:06;;;;;;;9.10;4.30;;;;;;;10.28;85.64;100807.56;4972638;28;20406;-73
2022/10/20 07:55:10;;;;;;;;;;;;;;;10.45;84.26;100786.69;4972692;28;20045;-73
2022/10/20 07:58:15;;;;;;;14.50;4.50;;;;;;;10.43;82.91;100775.47;4972167;28;19925;-74
2022/10/20 08:01:19;;;;;;;8.55;4.68;;;;;;;10.41;84.25;100760.78;4972606;28;20049;-74
2022/10/20 08:04:23;;;;;;;10.15;5.03;;;;;;;10.46;84.68;100775.34;4972280;28;20085;-74
2022/10/20 08:07:26;;;;;;;9.43;4.43;;;;;;;10.47;83.45;100782.25;4972415;28;20038;-73
2022/10/20 08:10:33;;;;;;;9.90;6.13;;;;;;;10.66;82.76;100781.38;4972359;28;20045;-74
2022/10/20 08:13:39;;;;;;;6.13;4.47;;;;;;;10.66;81.68;100770.91;4964330;28;20502;-73
2022/10/20 08:16:44;;;;;;;8.65;4.63;;;;;;;10.62;82.53;100764.13;4976000;28;20121;-74
2022/10/20 08:19:48;;;;;;;10.27;5.70;;;;;;;10.63;82.14;100760.59;4975797;28;20121;-74
2022/10/20 08:22:55;;;;;;;11.70;5.70;;;;;;;10.63;82.49;100765.84;4975694;28;20189;-74
2022/10/20 08:26:02;;;;;;;10.43;5.07;;;;;;;10.67;82.38;100756.91;4975781;28;20042;-74
2022/10/20 08:29:07;;;;;;;9.05;5.25;;;;;;;10.79;81.96;100732.78;4975617;28;20045;-74
2022/10/20 08:32:13;;;;;;;7.47;5.10;;;;;;;10.81;82.69;100743.97;4975799;28;20126;-74
2022/10/20 08:35:16;;;;;;;9.73;5.38;;;;;;;10.80;83.30;100731.00;4975721;28;20450;-74
2022/10/20 08:38:20;;;;;;;9.93;5.53;;;;;;;10.86;82.20;100725.47;4975384;28;20410;-74
2022/10/20 08:41:28;;;;;;;8.15;5.40;;;;;;;10.88;82.26;100721.84;4975787;28;20108;-74
2022/10/20 08:44:34;;;;;;;8.45;5.13;;;;;;;11.07;82.42;100718.28;4975271;28;20058;-74
2022/10/20 08:47:39;;;;;;;10.85;5.03;;;;;;;11.13;82.36;100720.56;4975224;28;20128;-74
2022/10/20 08:50:46;;;;;;;15.60;6.93;;;;;;;11.28;82.33;100735.50;4975240;28;20552;-74
2022/10/20 08:53:54;;;;;;;18.42;5.82;;;;;;;11.35;81.66;100752.56;4961820;28;20417;-74
2022/10/20 08:56:57;;;;;;;9.85;5.63;;;;;;;11.50;80.02;100722.13;4975327;28;20134;-74
2022/10/20 09:00:13;;;;;;;13.23;6.70;;;;;;;11.60;80.53;100730.34;4975490;28;20054;-74
2022/10/20 09:03:20;;;;;;;13.52;5.95;;;;;;;11.67;81.35;100723.84;4963173;28;20049;-74
2022/10/20 09:06:24;;;;;;;10.13;5.95;;;;;;;11.67;80.68;100730.88;4974739;28;20482;-74
2022/10/20 09:09:58;;;;;;;9.00;5.35;;;;;;;11.83;81.51;100740.44;4975238;28;20058;-74
2022/10/20 09:13:10;;;;;;;11.82;6.18;;;;;;;12.05;80.42;100731.44;4975339;28;20088;-74
2022/10/20 09:16:36;;;;;;;12.98;6.32;;;;;;;12.05;79.68;100740.13;4974965;28;20046;-74
2022/10/20 09:19:48;;;;;;;13.88;6.85;;;;;;;12.03;80.55;100735.94;4974908;28;20054;-74
2022/10/20 09:22:52;;;;;;;17.35;6.22;;;;;;;12.15;79.71;100729.16;4974239;28;20105;-74
2022/10/20 09:25:56;;;;;;;12.25;7.03;;;;;;;12.09;80.35;100736.44;4975054;28;20141;-74
2022/10/20 09:29:04;;;;;;;;;;;;;;;12.20;80.05;100733.22;4975234;28;20048;-74
2022/10/20 09:32:30;;;;;;;10.95;6.07;;;;;;;12.12;80.92;100709.19;4974638;28;20017;-74
2022/10/20 09:35:35;;;;;;;7.80;6.72;;;;;;;12.20;80.16;100707.00;4972811;28;20537;-74
2022/10/20 09:38:45;;;;;;;9.02;6.20;;;;;;;12.42;80.28;100721.53;4973198;28;20499;-74
2022/10/20 09:41:58;;;;;;;7.95;6.10;;;;;;;12.41;79.91;100714.56;4974255;28;20045;-74
2022/10/20 09:45:11;;;;;;;7.73;5.77;;;;;;;12.42;82.08;100705.78;4974193;28;20375;-74
2022/10/20 09:48:31;;;;;;;;;;;;;;;12.50;81.82;100695.69;4973557;28;20045;-74
2022/10/20 09:51:51;;;;;;;10.10;6.32;;;;;;;12.59;80.79;100697.78;4973002;28;19920;-74
2022/10/20 09:55:00;;;;;;;10.32;6.90;;;;;;;12.50;81.86;100698.31;4956630;28;20066;-74
2022/10/20 09:58:05;;;;;;;13.98;6.85;;;;;;;12.52;81.61;100699.09;4973694;28;20410;-74
2022/10/20 10:01:15;;;;;;;14.93;7.18;;;;;;;12.64;81.96;100701.00;4973864;28;20049;-74
2022/10/20 10:04:39;;;;;;;10.73;6.63;;;;;;;12.50;82.44;100700.94;4973720;28;20065;-74
2022/10/20 10:07:42;;;;;;;13.70;6.95;;;;;;;12.37;83.23;100707.81;4974039;28;20077;-74
2022/10/20 10:10:57;;;;;;;;;;;;;;;12.36;82.51;100701.72;4974580;28;20132;-74
2022/10/20 10:14:02;;;;;;;14.40;7.43;;;;;;;12.37;82.35;100702.56;4974214;28;19921;-74
2022/10/20 10:17:06;;;;;;;12.88;6.45;;;;;;;12.52;82.17;100712.19;4961558;28;20077;-74
2022/10/20 10:20:10;;;;;;;7.10;5.97;;;;;;;12.66;81.69;100695.66;4974063;28;20111;-74
2022/10/20 10:23:21;;;;;;;9.07;6.95;;;;;;;12.60;82.49;100691.59;4973994;28;20133;-74
2022/10/20 10:26:38;;;;;;;9.40;7.47;;;;;;;12.76;81.91;100695.03;4973495;28;20106;-75
2022/10/20 10:29:42;;;;;;;11.90;7.20;;;;;;;12.83;82.19;100692.03;4973657;28;20078;-75
2022/10/20 10:32:46;;;;;;;9.60;7.13;;;;;;;12.66;84.18;100701.72;4973206;28;20077;-75
2022/10/20 10:35:52;;;;;;;13.63;6.70;;;;;;;12.68;82.82;100691.16;4972508;28;20065;-75
2022/10/20 10:38:57;;;;;;;10.88;6.95;;;;;;;12.79;82.03;100681.75;4961345;28;20054;-75
2022/10/20 10:42:36;;;;;;;11.07;6.55;;;;;;;12.92;81.84;100673.13;4961441;28;20045;-74
2022/10/20 10:45:45;;;;;;;15.25;6.75;;;;;;;13.12;82.18;100648.31;4970677;28;20085;-75
2022/10/20 10:49:03;;;;;;;10.05;6.82;;;;;;;13.13;82.55;100635.09;4971953;28;20045;-75
2022/10/20 10:52:43;;;;;;;12.15;7.10;;;;;;;13.29;82.53;100623.66;4972304;28;20097;-75
2022/10/20 10:56:02;;;;;;;12.93;7.10;;;;;;;13.18;82.44;100634.81;4971637;28;20096;-75
2022/10/20 10:59:23;;;;;;;9.80;7.20;;;;;;;13.21;82.10;100630.22;4972283;28;20525;-75
2022/10/20 11:03:15;;;;;;;17.63;8.10;;;;;;;13.26;81.40;100641.28;4960344;28;20058;-75
2022/10/20 11:06:36;;;;;;;14.43;8.85;;;;;;;13.43;80.85;100626.25;4972173;28;20415;-75
2022/10/20 11:09:55;;;;;;;17.88;11.85;;;;;;;13.39;80.42;100603.78;4973272;28;20050;-75
2022/10/20 11:13:15;;;;;;;15.68;9.60;;;;;;;13.42;80.42;100635.09;4973182;28;20490;-75
2022/10/20 11:16:42;;;;;;;13.60;10.52;;;;;;;13.18;79.70;100617.28;4960827;28;20326;-75
2022/10/20 11:19:52;;;;;;;14.20;11.07;;;;;;;13.10;79.73;100627.38;4973040;28;20462;-75
2022/10/20 11:23:20;;;;;;;14.85;10.23;;;;;;;13.12;81.27;100615.03;4972893;28;20105;-75
2022/10/20 11:26:40;;;;;;;13.52;11.23;;;;;;;13.14;79.69;100626.25;4972919;28;20135;-75
2022/10/20 11:30:07;;;;;;;16.02;10.25;;;;;;;13.14;80.57;100647.25;4972405;28;20053;-75
2022/10/20 11:33:20;;;;;;;14.00;10.13;;;;;;;13.25;80.78;100649.28;4972394;28;20037;-75
2022/10/20 11:36:31;;;;;;;13.50;8.90;;;;;;;13.39;80.42;100666.81;4972593;28;20558;-75
2022/10/20 11:39:47;;;;;;;13.82;10.35;;;;;;;13.34;79.50;100679.41;4960981;28;20045;-75
2022/10/20 11:42:56;;;;;;;13.88;11.35;;;;;;;13.13;79.93;100671.84;4972879;28;20053;-75
2022/10/20 11:46:04;;;;;;;17.42;10.23;;;;;;;13.07;80.44;100672.19;4961401;28;20537;-75
2022/10/20 11:49:11;;;;;;;13.68;10.88;;;;;;;13.11;80.61;100668.44;4964519;28;20139;-75
2022/10/20 11:52:42;;;;;;;13.63;10.73;;;;;;;13.15;80.17;100659.47;4976270;28;20653;-75
2022/10/20 11:56:42;;;;;;;13.98;11.13;;;;;;;13.10;80.18;100651.00;4975827;28;20046;-75
2022/10/20 12:00:16;;;;;;;13.60;11.10;;;;;;;13.13;81.15;100647.38;4968131;28;20470;-75
2022/10/20 12:03:19;;;;;;;13.35;10.70;;;;;;;13.22;80.85;100649.44;4964377;28;20045;-75
2022/10/20 12:06:57;;;;;;;23.45;16.77;;;;;;;13.14;81.07;100651.66;4963809;28;20097;-75
2022/10/20 12:10:30;;;;;;;19.80;13.43;;;;;;;13.21;82.37;100653.84;4937955;29;20042;-75
2022/10/20 12:14:14;;;;;;;15.02;11.35;;;;;;;13.35;82.63;100644.31;4925721;29;20058;-75
2022/10/20 12:17:34;;;;;;;15.48;11.63;;;;;;;13.41;83.36;100654.44;4937723;29;20138;-75
2022/10/20 12:20:38;;;;;;;15.90;10.38;;;;;;;13.30;85.22;100635.84;4937770;29;20054;-75
2022/10/20 12:23:41;;;;;;;16.65;10.27;;;;;;;13.20;87.27;100625.88;4937346;29;20054;-75
2022/10/20 12:27:15;;;;;;;16.58;12.25;;;;;;;13.24;87.51;100637.94;4937176;29;20042;-75
2022/10/20 12:30:37;;;;;;;12.88;11.38;;;;;;;13.25;87.58;100629.13;4937035;29;20515;-75
2022/10/20 12:33:52;;;;;;;14.75;10.23;;;;;;;13.28;88.91;100629.88;4937520;29;20059;-75
2022/10/20 12:37:14;;;;;;;17.15;10.60;;;;;;;13.35;88.38;100629.38;4937212;29;20518;-75
2022/10/20 12:40:29;;;;;;;14.40;10.75;;;;;;;13.33;89.02;100617.28;4937366;29;20501;-75
2022/10/20 12:43:44;;;;;;;19.23;11.38;;;;;;;13.36;90.13;100602.16;4937088;29;20093;-75
2022/10/20 12:47:04;;;;;;;19.25;11.23;;;;;;;13.29;89.18;100593.00;4925446;29;20047;-75
2022/10/20 12:50:40;;;;;;;19.15;13.13;;;;;;;13.33;87.60;100599.72;4936878;29;20059;-74
2022/10/20 12:53:59;;;;;;;17.13;12.35;;;;;;;13.33;87.40;100580.50;4937093;29;20054;-75
2022/10/20 12:57:25;;;;;;;18.70;12.43;;;;;;;13.16;88.12;100584.16;4936373;29;20055;-75
2022/10/20 13:00:28;;;;;;;19.23;12.90;;;;;;;13.14;88.72;100573.75;4936640;29;20510;-75
2022/10/20 13:03:38;;;;;;;16.50;11.75;;;;;;;13.18;88.61;100559.50;4936948;29;20526;-75
2022/10/20 13:06:42;;;;;;;17.88;12.43;;;;;;;13.28;88.17;100558.97;4936370;29;20066;-75
2022/10/20 13:09:55;;;;;;;15.15;12.73;;;;;;;13.26;88.57;100569.56;4935141;29;20519;-75
2022/10/20 13:13:01;;;;;;;15.95;13.05;;;;;;;13.16;88.70;100560.53;4936230;29;20055;-75
2022/10/20 13:16:15;;;;;;;20.80;15.02;;;;;;;13.11;89.21;100568.69;4936644;29;20558;-75
2022/10/20 13:19:29;;;;;;;20.05;14.43;;;;;;;13.10;89.21;100577.50;4935605;29;20415;-75
2022/10/20 13:22:32;;;;;;;19.17;14.02;;;;;;;13.16;89.26;100573.66;4936331;29;20055;-75
2022/10/20 13:25:39;;;;;;;16.63;13.57;;;;;;;13.18;88.68;100579.69;4924622;29;20050;-75
2022/10/20 13:28:47;;;;;;;19.27;13.60;;;;;;;13.16;88.98;100577.13;4935549;29;20514;-75
2022/10/20 13:31:55;;;;;;;15.75;13.23;;;;;;;13.15;88.73;100583.34;4936885;29;20568;-75
2022/10/20 13:35:20;;;;;;;15.70;13.52;;;;;;;13.24;87.73;100576.66;4936318;29;20248;-75
2022/10/20 13:38:31;;;;;;;16.63;13.35;;;;;;;13.30;88.52;100570.19;4936400;29;20051;-75
2022/10/20 13:41:47;;;;;;;17.42;12.85;;;;;;;13.35;89.42;100576.84;4936124;29;20055;-75
2022/10/20 13:45:00;;;;;;;16.88;12.95;;;;;;;13.34;89.86;100576.97;4935845;29;20070;-75
2022/10/20 13:48:16;;;;;;;18.45;12.52;;;;;;;13.45;89.74;100571.88;4935938;29;20047;-75
2022/10/20 13:51:27;;;;;;;18.08;13.73;;;;;;;13.41;89.36;100562.50;4935527;29;20078;-75
2022/10/20 13:54:34;;;;;;;16.95;13.43;;;;;;;13.39;90.61;100569.63;4935497;29;20070;-75
2022/10/20 13:57:49;;;;;;;18.70;13.73;;;;;;;13.34;91.42;100569.09;4935148;29;20059;-75
2022/10/20 14:01:03;;;;;;;21.33;14.43;;;;;;;13.34;91.98;100569.94;4935521;29;20042;-75
2022/10/20 14:04:36;;;;;;;18.98;13.35;;;;;;;13.31;91.12;100582.41;4935526;29;20047;-75
2022/10/20 14:07:43;;;;;;;25.75;14.77;;;;;;;13.25;90.64;100591.50;4935096;29;20062;-75
2022/10/20 14:11:03;;;;;;;16.83;13.32;;;;;;;13.30;90.70;100578.91;4935088;29;20058;-75
2022/10/20 14:14:12;;;;;;;22.58;15.10;;;;;;;13.30;91.33;100588.59;4935106;29;20114;-75
2022/10/20 14:17:22;;;;;;;20.17;15.25;;;;;;;13.20;92.29;100581.25;4923320;29;20058;-75
2022/10/20 14:20:26;;;;;;;16.85;14.95;;;;;;;13.12;93.07;100596.66;4935166;29;20174;-75
2022/10/20 14:23:36;;;;;;;18.63;15.65;;;;;;;13.16;94.15;100592.03;4934906;29;20103;-75
2022/10/20 14:26:45;;;;;;;22.33;15.20;;;;;;;13.12;94.58;100594.03;4934864;29;20054;-75
2022/10/20 14:29:50;;;;;;;18.30;13.88;;;;;;;13.18;94.67;100591.03;4935018;29;20051;-75
2022/10/20 14:32:55;;;;;;;19.80;14.75;;;;;;;13.15;95.26;100591.22;4935224;29;20096;-75
2022/10/20 14:36:01;;;;;;;23.73;16.63;;;;;;;13.19;95.41;100591.84;4934740;29;20050;-75
2022/10/20 14:39:05;;;;;;;22.40;17.80;;;;;;;13.13;96.23;100571.22;4934842;29;20103;-75
2022/10/20 14:42:35;;;;;;;18.23;16.27;;;;;;;13.16;96.47;100585.00;4935131;29;20069;-75
2022/10/20 14:45:38;;;;;;;19.42;13.88;;;;;;;13.08;97.12;100586.41;4935235;29;20051;-75
2022/10/20 14:48:43;;;;;;;;;;;;;;;13.10;97.13;100582.75;4935515;29;20047;-75
2022/10/20 14:52:18;;;;;;;;;;;;;;;;;;;;;